Time;durP1;ratioP1;P1;durP2;ratioP2;P2;SDS_P1;SDS_P2;PMS_P1;PMS_P2;Temp;Humidity;BMP_temperature;BMP_pressure;BME280_temperature;BME280_humidity;BME280_pressure;Samples;Min_cycle;Max_cycle;Signal;HPM_P1;HPM_P2
2021/11/10 00:01:11;;;;;;;18.85;12.02;;;5.20;99.90;;;;;;5094557;28;20771;-72
2021/11/10 00:03:39;;;;;;;18.30;12.02;;;5.20;99.90;;;;;;5100235;28;20217;-73
2021/11/10 00:06:06;;;;;;;15.10;11.93;;;5.30;99.90;;;;;;5114812;28;20292;-74
2021/11/10 00:08:33;;;;;;;20.20;12.52;;;5.40;99.90;;;;;;5114118;28;20626;-72
2021/11/10 00:11:00;;;;;;;17.15;12.23;;;5.50;99.90;;;;;;5113645;28;20578;-72
2021/11/10 00:13:27;;;;;;;19.42;12.18;;;5.40;99.90;;;;;;5114385;28;20226;-73
2021/11/10 00:15:54;;;;;;;20.73;12.52;;;5.30;99.90;;;;;;5114352;28;20201;-73
2021/11/10 00:18:22;;;;;;;18.10;12.07;;;5.30;99.90;;;;;;5113917;28;20207;-72
2021/11/10 00:20:50;;;;;;;15.55;11.38;;;5.30;99.90;;;;;;5113614;28;20218;-74
2021/11/10 00:23:17;;;;;;;18.10;11.02;;;5.30;99.90;;;;;;5114343;28;20334;-74
2021/11/10 00:25:44;;;;;;;20.00;11.90;;;5.40;99.90;;;;;;5114036;28;20690;-74
2021/11/10 00:28:11;;;;;;;16.17;12.05;;;5.40;99.90;;;;;;5113893;28;20223;-75
2021/11/10 00:30:38;;;;;;;17.23;11.93;;;5.40;99.90;;;;;;5113366;28;20229;-73
2021/11/10 00:33:05;;;;;;;19.50;12.18;;;5.30;99.90;;;;;;5113823;28;20233;-73
2021/11/10 00:35:32;;;;;;;18.38;12.45;;;5.30;99.90;;;;;;5114356;28;20292;-73
2021/11/10 00:38:00;;;;;;;17.63;12.30;;;5.30;99.90;;;;;;5113559;28;20205;-73
2021/11/10 00:40:27;;;;;;;19.75;12.50;;;5.20;99.90;;;;;;5113122;28;20317;-74
2021/11/10 00:42:54;;;;;;;19.85;11.75;;;5.20;99.90;;;;;;5113797;28;20221;-73
2021/11/10 00:45:21;;;;;;;17.13;11.82;;;5.10;99.90;;;;;;5113957;28;20204;-73
2021/11/10 00:47:48;;;;;;;16.63;11.20;;;5.20;99.90;;;;;;5113392;28;20660;-74
2021/11/10 00:50:15;;;;;;;18.00;11.80;;;5.00;99.90;;;;;;5113083;28;20296;-74
2021/11/10 00:52:42;;;;;;;19.77;12.43;;;4.80;99.90;;;;;;5113128;28;20208;-73
2021/11/10 00:55:11;;;;;;;16.83;11.95;;;4.50;99.90;;;;;;5106281;28;20536;-73
2021/11/10 00:57:38;;;;;;;15.70;12.40;;;4.50;99.90;;;;;;5094136;28;20285;-74
2021/11/10 01:00:06;;;;;;;15.73;11.15;;;4.60;99.90;;;;;;5092802;28;20233;-72
2021/11/10 01:02:33;;;;;;;15.82;11.75;;;4.70;99.90;;;;;;5093789;28;20208;-73
2021/11/10 01:05:00;;;;;;;17.55;12.43;;;4.80;99.90;;;;;;5094858;28;20212;-74
2021/11/10 01:07:27;;;;;;;19.45;12.60;;;4.90;99.90;;;;;;5093827;28;20576;-75
2021/11/10 01:09:58;;;;;;;16.88;11.23;;;5.00;99.90;;;;;;5093178;28;20257;-72
2021/11/10 01:12:26;;;;;;;18.63;13.00;;;5.10;99.90;;;;;;5092722;28;20275;-71
2021/11/10 01:14:53;;;;;;;18.13;12.23;;;5.20;99.90;;;;;;5092951;28;20722;-72
2021/11/10 01:17:21;;;;;;;17.33;12.45;;;5.20;99.90;;;;;;5092593;28;20231;-74
2021/11/10 01:19:47;;;;;;;21.30;12.93;;;5.10;99.90;;;;;;5092318;28;20285;-72
2021/11/10 01:22:14;;;;;;;17.00;12.50;;;5.00;99.90;;;;;;5092539;28;20232;-72
2021/11/10 01:24:41;;;;;;;17.15;11.65;;;5.00;99.90;;;;;;5100506;28;20217;-73
2021/11/10 01:27:09;;;;;;;20.10;13.43;;;5.00;99.90;;;;;;5103253;28;20251;-72
2021/11/10 01:29:38;;;;;;;19.52;13.65;;;5.00;99.90;;;;;;5102064;28;20221;-72
2021/11/10 01:32:05;;;;;;;17.50;12.30;;;4.90;99.90;;;;;;5099115;28;20185;-72
2021/11/10 01:34:32;;;;;;;18.63;12.75;;;4.80;99.90;;;;;;5101006;28;20225;-72
2021/11/10 01:36:59;;;;;;;14.82;12.05;;;4.70;99.90;;;;;;5103075;28;20195;-72
2021/11/10 01:39:26;;;;;;;18.33;11.65;;;4.70;99.90;;;;;;5100066;28;20682;-74
2021/11/10 01:42:01;;;;;;;19.02;12.55;;;4.70;99.90;;;;;;5102228;28;20221;-72
2021/11/10 01:44:31;;;;;;;18.08;11.93;;;4.70;99.90;;;;;;5101745;28;20213;-73
2021/11/10 01:47:04;;;;;;;23.00;12.65;;;4.70;99.90;;;;;;5101615;28;20190;-72
2021/11/10 01:49:31;;;;;;;17.85;12.20;;;4.40;99.90;;;;;;5095305;28;20201;-73
2021/11/10 01:52:00;;;;;;;17.15;12.57;;;4.20;99.90;;;;;;5103334;28;20221;-73
2021/11/10 01:54:29;;;;;;;18.15;13.20;;;4.30;99.90;;;;;;5100657;28;20296;-72
2021/11/10 01:56:56;;;;;;;20.52;13.20;;;4.50;99.90;;;;;;5103424;28;20200;-72
2021/11/10 01:59:33;;;;;;;20.20;13.00;;;4.50;99.90;;;;;;5101693;28;20545;-73
2021/11/10 02:02:03;;;;;;;22.05;12.43;;;4.40;99.90;;;;;;5101374;28;20298;-73
2021/11/10 02:04:32;;;;;;;20.20;13.32;;;4.40;99.90;;;;;;5105376;28;20598;-72
2021/11/10 02:07:00;;;;;;;18.63;13.05;;;4.50;99.90;;;;;;5100912;28;20197;-74
2021/11/10 02:09:27;;;;;;;16.38;12.32;;;4.50;99.90;;;;;;5102886;28;20198;-73
2021/11/10 02:11:56;;;;;;;18.10;12.10;;;4.60;99.90;;;;;;5101358;28;20198;-74
2021/11/10 02:14:25;;;;;;;18.85;13.52;;;4.70;99.90;;;;;;5104224;28;20562;-74
2021/11/10 02:16:53;;;;;;;23.77;12.82;;;4.80;99.90;;;;;;5097008;28;20224;-73
2021/11/10 02:19:23;;;;;;;18.40;12.57;;;4.80;99.90;;;;;;5097586;28;20208;-73
2021/11/10 02:21:55;;;;;;;18.67;12.40;;;4.70;99.90;;;;;;5097186;28;20217;-73
2021/11/10 02:24:24;;;;;;;18.13;11.70;;;4.60;99.90;;;;;;5097742;28;20226;-73
2021/11/10 02:26:51;;;;;;;14.43;11.23;;;4.60;99.90;;;;;;5097373;28;20564;-73
2021/11/10 02:29:21;;;;;;;19.75;12.55;;;4.50;99.90;;;;;;5097418;28;20201;-73
2021/11/10 02:31:49;;;;;;;19.80;12.35;;;4.40;99.90;;;;;;5096994;28;20290;-73
2021/11/10 02:34:16;;;;;;;18.45;13.18;;;4.40;99.90;;;;;;5097244;28;20230;-73
2021/11/10 02:36:44;;;;;;;17.98;12.50;;;4.40;99.90;;;;;;5097065;28;20660;-73
2021/11/10 02:39:15;;;;;;;20.80;13.85;;;4.50;99.90;;;;;;5096977;28;20671;-74
2021/11/10 02:41:46;;;;;;;18.52;12.00;;;4.50;99.90;;;;;;5096719;28;20650;-73
2021/11/10 02:44:15;;;;;;;21.10;13.38;;;4.50;99.90;;;;;;5097352;28;20233;-73
2021/11/10 02:46:43;;;;;;;19.45;12.40;;;4.60;99.90;;;;;;5097243;28;20557;-72
2021/11/10 02:49:10;;;;;;;21.75;14.38;;;4.60;99.90;;;;;;5097287;28;20205;-73
2021/11/10 02:51:36;;;;;;;22.60;13.85;;;4.60;99.90;;;;;;5096285;28;20198;-72
2021/11/10 02:54:09;;;;;;;20.55;12.98;;;4.80;99.90;;;;;;5096887;28;20228;-73
2021/11/10 02:56:37;;;;;;;19.25;13.63;;;4.70;99.90;;;;;;5096937;28;20556;-74
2021/11/10 02:59:04;;;;;;;21.42;13.40;;;4.60;99.90;;;;;;5096976;28;20289;-74
2021/11/10 03:01:31;;;;;;;23.38;13.70;;;4.60;99.90;;;;;;5096263;28;20222;-74
2021/11/10 03:03:58;;;;;;;19.33;12.57;;;4.70;99.90;;;;;;5096503;28;20333;-73
2021/11/10 03:06:24;;;;;;;21.42;14.32;;;4.70;99.90;;;;;;5096565;28;20198;-72
2021/11/10 03:08:51;;;;;;;21.17;13.50;;;4.60;99.90;;;;;;5096409;28;20716;-72
2021/11/10 03:11:18;;;;;;;18.50;12.95;;;4.30;99.90;;;;;;5096446;28;20288;-72
2021/11/10 03:13:46;;;;;;;21.33;13.80;;;4.10;99.90;;;;;;5096160;28;20333;-72
2021/11/10 03:16:13;;;;;;;22.50;14.27;;;4.00;99.90;;;;;;5097007;28;20228;-73
2021/11/10 03:18:41;;;;;;;20.40;14.68;;;4.20;99.90;;;;;;5096020;28;20292;-73
2021/11/10 03:21:08;;;;;;;20.52;13.70;;;4.30;99.90;;;;;;5096071;28;20198;-73
2021/11/10 03:23:34;;;;;;;21.80;14.20;;;4.30;99.90;;;;;;5095707;28;20625;-73
2021/11/10 03:26:01;;;;;;;22.70;13.27;;;4.40;99.90;;;;;;5096509;28;20728;-73
2021/11/10 03:28:28;;;;;;;18.13;13.02;;;4.40;99.90;;;;;;5096025;28;20202;-73
2021/11/10 03:30:56;;;;;;;20.38;13.60;;;4.50;99.90;;;;;;5096416;28;20364;-73
2021/11/10 03:33:23;;;;;;;25.35;14.20;;;4.60;99.90;;;;;;5095511;28;20257;-73
2021/11/10 03:35:50;;;;;;;22.40;13.70;;;4.50;99.90;;;;;;5096137;28;20202;-73
2021/11/10 03:38:17;;;;;;;22.40;13.43;;;4.50;99.90;;;;;;5096171;28;20209;-73
2021/11/10 03:40:44;;;;;;;20.00;12.98;;;4.60;99.90;;;;;;5096082;28;20296;-73
2021/11/10 03:43:11;;;;;;;19.48;12.50;;;4.60;99.90;;;;;;5095912;28;20226;-73
2021/11/10 03:45:38;;;;;;;21.73;13.75;;;4.60;99.90;;;;;;5096474;28;20230;-73
2021/11/10 03:48:08;;;;;;;22.77;13.75;;;4.70;99.90;;;;;;5095581;28;20288;-72
2021/11/10 03:50:35;;;;;;;24.88;14.82;;;4.60;99.90;;;;;;5095868;28;20252;-73
2021/11/10 03:53:02;;;;;;;20.10;13.85;;;4.60;99.90;;;;;;5095570;28;20218;-72
2021/11/10 03:55:35;;;;;;;20.60;14.40;;;4.70;99.90;;;;;;5095927;28;20206;-73
2021/11/10 03:58:03;;;;;;;24.95;15.38;;;4.50;99.90;;;;;;5096031;28;20206;-73
2021/11/10 04:00:31;;;;;;;23.08;16.02;;;4.10;99.90;;;;;;5095551;28;20206;-73
2021/11/10 04:02:58;;;;;;;26.17;15.88;;;3.90;99.90;;;;;;5095130;28;20226;-73
2021/11/10 04:05:27;;;;;;;24.63;15.70;;;3.80;99.90;;;;;;5095511;28;20204;-73
2021/11/10 04:07:53;;;;;;;22.60;15.23;;;3.90;99.90;;;;;;5095640;28;20289;-73
2021/11/10 04:10:21;;;;;;;21.50;14.73;;;3.90;99.90;;;;;;5095676;28;20198;-73
2021/11/10 04:15:37;;;;;;;23.55;14.85;;;4.20;99.90;;;;;;5617062;22;20277;-73
2021/11/10 04:18:05;;;;;;;25.30;15.50;;;4.20;99.90;;;;;;5034932;28;20218;-73
2021/11/10 04:20:33;;;;;;;21.30;15.15;;;4.20;99.90;;;;;;5034932;28;20208;-73
2021/11/10 04:23:00;;;;;;;24.10;14.63;;;4.10;99.90;;;;;;5034589;28;20701;-73
2021/11/10 04:25:27;;;;;;;22.15;16.00;;;4.10;99.90;;;;;;5034253;28;20204;-73
2021/11/10 04:27:55;;;;;;;21.60;15.85;;;4.20;99.90;;;;;;5035044;28;20228;-73
2021/11/10 04:30:21;;;;;;;23.08;14.48;;;4.30;99.90;;;;;;5035051;28;20206;-73
2021/11/10 04:32:49;;;;;;;20.10;14.32;;;4.30;99.90;;;;;;5034988;28;20657;-73
2021/11/10 04:35:16;;;;;;;20.23;14.52;;;4.40;99.90;;;;;;5033427;28;20210;-73
2021/11/10 04:37:45;;;;;;;20.10;14.07;;;4.40;99.90;;;;;;5034388;28;20809;-73
2021/11/10 04:40:12;;;;;;;23.40;14.90;;;4.40;99.90;;;;;;5034782;28;20200;-72
2021/11/10 04:42:40;;;;;;;20.33;13.65;;;4.40;99.90;;;;;;5034183;28;20227;-73
2021/11/10 04:45:14;;;;;;;24.20;14.70;;;4.40;99.90;;;;;;5033934;28;20204;-72
2021/11/10 04:47:41;;;;;;;22.75;14.80;;;4.10;99.90;;;;;;5034826;28;20262;-72
2021/11/10 04:50:09;;;;;;;20.38;14.65;;;4.20;99.90;;;;;;5034250;28;20214;-74
2021/11/10 04:52:37;;;;;;;24.65;15.52;;;4.20;99.90;;;;;;5034256;28;20204;-73
2021/11/10 04:55:07;;;;;;;23.80;15.80;;;3.90;99.90;;;;;;5033841;28;20208;-73
2021/11/10 04:57:34;;;;;;;30.38;16.33;;;3.70;99.90;;;;;;5034741;28;20311;-74
2021/11/10 05:00:01;;;;;;;25.00;16.20;;;3.60;99.90;;;;;;5034623;28;20204;-73
2021/11/10 05:02:28;;;;;;;24.10;15.77;;;3.70;99.90;;;;;;5034484;28;20223;-72
2021/11/10 05:04:56;;;;;;;23.63;15.20;;;3.80;99.90;;;;;;5033668;28;20266;-72
2021/11/10 05:07:23;;;;;;;24.52;15.30;;;4.00;99.90;;;;;;5034386;28;20224;-72
2021/11/10 05:09:51;;;;;;;25.83;15.15;;;4.10;99.90;;;;;;5034177;28;20214;-72
2021/11/10 05:12:19;;;;;;;19.52;13.52;;;4.10;99.90;;;;;;5034368;28;20334;-73
2021/11/10 05:14:46;;;;;;;22.30;14.75;;;4.00;99.90;;;;;;5033318;28;20300;-74
2021/11/10 05:17:13;;;;;;;21.95;14.77;;;3.70;99.90;;;;;;5033649;28;20424;-73
2021/11/10 05:19:40;;;;;;;27.00;15.32;;;3.60;99.90;;;;;;5034071;28;20210;-73
2021/11/10 05:22:07;;;;;;;25.52;16.33;;;3.70;99.90;;;;;;5034038;28;20220;-72
2021/11/10 05:24:34;;;;;;;24.13;14.98;;;3.80;99.90;;;;;;5033637;28;20208;-74
2021/11/10 05:27:01;;;;;;;26.05;15.98;;;3.80;99.90;;;;;;5034111;28;20562;-73
2021/11/10 05:29:29;;;;;;;25.13;14.82;;;4.00;99.90;;;;;;5034185;28;20683;-73
2021/11/10 05:31:56;;;;;;;23.50;15.43;;;4.10;99.90;;;;;;5033620;28;20291;-72
2021/11/10 05:34:23;;;;;;;22.45;15.57;;;4.20;99.90;;;;;;5033416;28;20201;-73
2021/11/10 05:36:50;;;;;;;23.38;14.70;;;4.20;99.90;;;;;;5033597;28;20429;-72
2021/11/10 05:39:17;;;;;;;24.40;16.00;;;4.30;99.90;;;;;;5033577;28;20200;-72
2021/11/10 05:41:45;;;;;;;21.42;14.77;;;4.40;99.90;;;;;;5033978;28;20558;-72
2021/11/10 05:44:12;;;;;;;26.10;15.32;;;4.40;99.90;;;;;;5034071;28;20265;-73
2021/11/10 05:46:41;;;;;;;24.30;13.90;;;4.40;99.90;;;;;;5033010;28;20334;-73
2021/11/10 05:49:09;;;;;;;28.27;15.48;;;4.30;99.90;;;;;;5033728;28;20204;-73
2021/11/10 05:51:37;;;;;;;21.02;14.75;;;4.30;99.90;;;;;;5033663;28;20200;-73
2021/11/10 05:54:04;;;;;;;23.35;15.27;;;4.30;99.90;;;;;;5033849;28;20200;-73
2021/11/10 05:56:33;;;;;;;18.95;14.35;;;4.10;99.90;;;;;;5032925;28;20234;-74
2021/11/10 05:59:02;;;;;;;22.65;14.07;;;4.20;99.90;;;;;;5033544;28;20200;-74
2021/11/10 06:01:29;;;;;;;22.02;14.82;;;3.90;99.90;;;;;;5033613;28;20310;-73
2021/11/10 06:03:59;;;;;;;22.95;15.02;;;4.00;99.90;;;;;;5033442;28;20699;-73
2021/11/10 06:06:28;;;;;;;25.75;15.40;;;4.10;99.90;;;;;;5033045;28;20640;-73
2021/11/10 06:08:55;;;;;;;22.83;14.75;;;4.10;99.90;;;;;;5034147;28;20207;-73
2021/11/10 06:11:22;;;;;;;22.85;15.00;;;4.00;99.90;;;;;;5033274;28;20661;-73
2021/11/10 06:13:49;;;;;;;23.98;15.65;;;4.10;99.90;;;;;;5033482;28;20207;-72
2021/11/10 06:16:16;;;;;;;23.08;13.95;;;4.00;99.90;;;;;;5032729;28;20353;-72
2021/11/10 06:18:42;;;;;;;23.73;15.75;;;3.90;99.90;;;;;;5033531;28;20204;-72
2021/11/10 06:21:11;;;;;;;25.30;15.60;;;4.00;99.90;;;;;;5033697;28;20553;-72
2021/11/10 06:23:37;;;;;;;25.45;15.35;;;3.90;99.90;;;;;;5033363;28;20231;-72
2021/11/10 06:26:05;;;;;;;29.77;16.10;;;3.70;99.90;;;;;;5032769;28;20230;-73
2021/11/10 06:28:32;;;;;;;24.38;16.83;;;3.80;99.90;;;;;;5033161;28;20298;-72
2021/11/10 06:30:59;;;;;;;28.58;16.40;;;3.70;99.90;;;;;;5033418;28;20211;-73
2021/11/10 06:33:26;;;;;;;26.33;15.50;;;3.70;99.90;;;;;;5033507;28;20549;-73
2021/11/10 06:35:53;;;;;;;31.38;16.88;;;3.70;99.90;;;;;;5032559;28;20210;-72
2021/11/10 06:38:21;;;;;;;25.10;16.05;;;3.50;99.90;;;;;;5033832;28;20287;-72
2021/11/10 06:40:48;;;;;;;26.60;17.17;;;3.40;99.90;;;;;;5033056;28;20211;-73
2021/11/10 06:43:14;;;;;;;26.42;15.73;;;3.40;99.90;;;;;;5033157;28;20234;-72
2021/11/10 06:45:42;;;;;;;27.92;17.10;;;3.30;99.90;;;;;;5032464;28;20200;-73
2021/11/10 06:48:09;;;;;;;27.25;17.35;;;3.20;99.90;;;;;;5033695;28;20231;-73
2021/11/10 06:50:36;;;;;;;28.80;17.13;;;3.20;99.90;;;;;;5033389;28;20291;-73
2021/11/10 06:53:04;;;;;;;27.30;16.98;;;3.40;99.90;;;;;;5032757;28;20621;-73
2021/11/10 06:55:32;;;;;;;28.48;17.33;;;3.50;99.90;;;;;;5032756;28;20638;-73
2021/11/10 06:57:59;;;;;;;24.95;16.80;;;3.80;99.90;;;;;;5034508;28;20224;-72
2021/11/10 07:00:25;;;;;;;26.60;16.75;;;3.80;99.90;;;;;;5036635;28;20211;-72
2021/11/10 07:02:52;;;;;;;26.27;15.40;;;3.80;99.90;;;;;;5036702;28;20692;-72
2021/11/10 07:05:19;;;;;;;27.48;15.65;;;3.90;99.90;;;;;;5036076;28;20215;-74
2021/11/10 07:07:46;;;;;;;26.63;16.70;;;4.00;99.90;;;;;;5036407;28;20230;-74
2021/11/10 07:10:13;;;;;;;26.83;16.38;;;4.00;99.90;;;;;;5036478;28;20204;-73
2021/11/10 07:12:41;;;;;;;24.58;16.63;;;4.00;99.90;;;;;;5036496;28;20231;-73
2021/11/10 07:15:09;;;;;;;25.08;17.05;;;3.90;99.90;;;;;;5035942;28;20208;-73
2021/11/10 07:17:36;;;;;;;24.98;16.25;;;3.90;99.90;;;;;;5035714;28;20324;-73
2021/11/10 07:20:04;;;;;;;28.70;17.95;;;4.10;99.90;;;;;;5036453;28;20302;-74
2021/11/10 07:22:32;;;;;;;26.35;16.58;;;4.30;99.90;;;;;;5036097;28;20250;-73
2021/11/10 07:24:59;;;;;;;24.77;17.50;;;4.40;99.90;;;;;;5035606;28;20211;-73
2021/11/10 07:27:27;;;;;;;24.48;16.50;;;4.40;99.90;;;;;;5036540;28;20561;-73
2021/11/10 07:29:55;;;;;;;29.40;17.80;;;4.30;99.90;;;;;;5036338;28;20207;-73
2021/11/10 07:32:22;;;;;;;27.80;18.48;;;4.10;99.90;;;;;;5036274;28;20287;-73
2021/11/10 07:34:49;;;;;;;32.03;18.70;;;4.00;99.90;;;;;;5035350;28;20299;-73
2021/11/10 07:37:16;;;;;;;31.35;20.75;;;3.90;99.90;;;;;;5035697;28;20255;-72
2021/11/10 07:39:44;;;;;;;31.00;19.20;;;3.90;99.90;;;;;;5036007;28;20295;-73
2021/11/10 07:42:11;;;;;;;31.20;20.13;;;3.80;99.90;;;;;;5036003;28;20212;-72
2021/11/10 07:44:39;;;;;;;30.48;18.83;;;3.80;99.90;;;;;;5035371;28;20678;-72
2021/11/10 07:47:11;;;;;;;30.90;19.90;;;3.80;99.90;;;;;;5035525;28;20224;-73
2021/11/10 07:49:38;;;;;;;31.92;19.63;;;3.80;99.90;;;;;;5035616;28;20188;-72
2021/11/10 07:52:05;;;;;;;30.77;20.33;;;3.90;99.90;;;;;;5035682;28;20215;-72
2021/11/10 07:54:32;;;;;;;32.20;19.00;;;4.00;99.90;;;;;;5035098;28;20200;-73
2021/11/10 07:56:59;;;;;;;33.35;18.90;;;4.10;99.90;;;;;;5035725;28;20224;-72
2021/11/10 07:59:26;;;;;;;34.88;21.33;;;4.30;99.90;;;;;;5036080;28;20203;-73
2021/11/10 08:01:53;;;;;;;29.55;20.40;;;4.40;99.90;;;;;;5035371;28;20290;-73
2021/11/10 08:04:21;;;;;;;32.17;19.35;;;4.40;99.90;;;;;;5035149;28;20686;-73
2021/11/10 08:06:48;;;;;;;30.83;19.30;;;4.40;99.90;;;;;;5035236;28;20715;-73
2021/11/10 08:09:15;;;;;;;30.08;20.98;;;4.50;99.90;;;;;;5035241;28;20683;-72
2021/11/10 08:11:41;;;;;;;29.85;20.20;;;4.70;99.90;;;;;;5035573;28;20534;-73
2021/11/10 08:14:09;;;;;;;31.35;20.17;;;4.70;99.90;;;;;;5035468;28;20207;-73
2021/11/10 08:16:36;;;;;;;28.60;20.60;;;4.90;99.90;;;;;;5034472;28;20242;-73
2021/11/10 08:19:03;;;;;;;34.75;21.80;;;5.00;99.90;;;;;;5035149;28;20617;-73
2021/11/10 08:21:31;;;;;;;29.70;19.23;;;5.30;99.90;;;;;;5034766;28;20230;-73
2021/11/10 08:23:58;;;;;;;31.20;20.38;;;5.50;99.90;;;;;;5035223;28;20627;-73
2021/11/10 08:26:25;;;;;;;29.08;21.10;;;5.60;99.90;;;;;;5034412;28;20232;-72
2021/11/10 08:28:52;;;;;;;31.83;20.48;;;5.60;99.90;;;;;;5034599;28;20606;-72
2021/11/10 08:31:19;;;;;;;29.00;20.48;;;5.50;99.90;;;;;;5034906;28;20230;-72
2021/11/10 08:33:45;;;;;;;30.60;20.85;;;5.40;99.90;;;;;;5034820;28;20206;-72
2021/11/10 08:36:13;;;;;;;32.90;20.73;;;5.30;99.90;;;;;;5034263;28;20315;-73
2021/11/10 08:38:41;;;;;;;27.60;20.25;;;5.30;99.90;;;;;;5035225;28;20200;-72
2021/11/10 08:41:08;;;;;;;28.45;19.42;;;5.30;99.90;;;;;;5034968;28;20545;-72
2021/11/10 08:43:35;;;;;;;26.95;18.90;;;5.40;99.90;;;;;;5034518;28;20322;-73
2021/11/10 08:46:02;;;;;;;26.33;18.20;;;5.70;99.90;;;;;;5033942;28;20231;-73
2021/11/10 08:48:29;;;;;;;27.48;18.45;;;5.90;99.90;;;;;;5034878;28;20295;-73
2021/11/10 08:50:57;;;;;;;26.58;19.75;;;5.80;99.90;;;;;;5034715;28;20204;-72
2021/11/10 08:53:24;;;;;;;25.42;18.13;;;6.00;99.90;;;;;;5034786;28;20553;-72
2021/11/10 08:55:56;;;;;;;25.65;19.17;;;5.90;99.90;;;;;;5033691;28;20295;-73
2021/11/10 08:58:24;;;;;;;27.83;19.58;;;6.00;99.90;;;;;;5034439;28;20204;-73
2021/11/10 09:00:52;;;;;;;25.02;18.98;;;6.20;99.90;;;;;;5034410;28;20206;-73
2021/11/10 09:03:20;;;;;;;23.17;17.13;;;6.30;99.90;;;;;;5034382;28;20224;-72
2021/11/10 09:05:47;;;;;;;22.73;18.15;;;6.40;99.90;;;;;;5033527;28;20208;-73
2021/11/10 09:08:14;;;;;;;26.95;19.05;;;6.60;99.90;;;;;;5034769;28;20206;-73
2021/11/10 09:10:41;;;;;;;27.98;18.98;;;6.60;99.90;;;;;;5034084;28;20298;-73
2021/11/10 09:13:10;;;;;;;24.70;17.23;;;6.70;99.90;;;;;;5034080;28;20196;-73
2021/11/10 09:15:36;;;;;;;26.38;19.30;;;6.80;99.90;;;;;;5033795;28;20231;-73
2021/11/10 09:18:06;;;;;;;24.52;17.67;;;6.80;99.90;;;;;;5033962;28;20342;-72
2021/11/10 09:20:33;;;;;;;26.50;20.50;;;6.80;99.90;;;;;;5033866;28;20204;-72
2021/11/10 09:23:02;;;;;;;24.77;19.13;;;6.70;99.90;;;;;;5033739;28;20210;-73
2021/11/10 09:25:31;;;;;;;24.98;17.88;;;6.70;99.90;;;;;;5033206;28;20200;-72
2021/11/10 09:28:01;;;;;;;26.40;20.10;;;6.80;99.90;;;;;;5034095;28;20220;-73
2021/11/10 09:30:30;;;;;;;29.02;20.25;;;6.90;99.90;;;;;;5034201;28;20228;-73
2021/11/10 09:32:59;;;;;;;27.25;19.83;;;7.00;99.90;;;;;;5034106;28;20204;-73
2021/11/10 09:35:26;;;;;;;26.55;19.52;;;7.10;99.90;;;;;;5033426;28;20214;-73
2021/11/10 09:37:55;;;;;;;24.63;18.88;;;7.20;99.90;;;;;;5033398;28;20708;-73
2021/11/10 09:40:25;;;;;;;31.23;19.70;;;7.30;99.90;;;;;;5033685;28;20199;-73
2021/11/10 09:42:52;;;;;;;29.38;20.50;;;7.20;99.90;;;;;;5033991;28;20208;-73
2021/11/10 09:45:21;;;;;;;30.27;20.80;;;7.30;99.90;;;;;;5033260;28;20673;-73
2021/11/10 09:47:50;;;;;;;28.00;20.20;;;7.40;99.90;;;;;;5033134;28;20226;-72
2021/11/10 09:50:20;;;;;;;29.65;20.60;;;7.50;99.90;;;;;;5033383;28;20649;-73
2021/11/10 09:52:48;;;;;;;26.60;20.10;;;7.60;99.90;;;;;;5033607;28;20185;-72
2021/11/10 09:55:17;;;;;;;28.38;21.27;;;7.60;99.90;;;;;;5032834;28;20211;-73
2021/11/10 09:57:44;;;;;;;28.58;20.80;;;7.70;99.90;;;;;;5033717;28;20231;-73
2021/11/10 10:00:14;;;;;;;24.83;20.40;;;7.80;99.90;;;;;;5033844;28;20299;-74
2021/11/10 10:02:44;;;;;;;25.27;19.42;;;7.80;99.90;;;;;;5033474;28;20211;-73
2021/11/10 10:05:13;;;;;;;25.15;18.92;;;7.80;99.90;;;;;;5032953;28;20306;-73
2021/11/10 10:07:41;;;;;;;26.30;19.83;;;7.90;99.90;;;;;;5033761;28;20330;-72
2021/11/10 10:10:08;;;;;;;24.13;19.50;;;8.00;99.90;;;;;;5033714;28;20211;-73
2021/11/10 10:12:35;;;;;;;27.50;21.08;;;8.00;99.90;;;;;;5033206;28;20670;-72
2021/11/10 10:15:02;;;;;;;29.85;20.88;;;8.10;99.90;;;;;;5033160;28;20296;-74
2021/11/10 10:17:35;;;;;;;28.05;20.23;;;8.10;99.90;;;;;;5033166;28;20270;-73
2021/11/10 10:20:03;;;;;;;32.05;21.40;;;8.30;99.90;;;;;;5033289;28;20204;-73
2021/11/10 10:22:31;;;;;;;28.13;21.33;;;8.40;99.90;;;;;;5033570;28;20201;-73
2021/11/10 10:24:59;;;;;;;26.65;20.98;;;8.40;99.90;;;;;;5032887;28;20231;-72
2021/11/10 10:27:29;;;;;;;27.05;20.02;;;8.50;99.90;;;;;;5032976;28;20775;-73
2021/11/10 10:30:25;;;;;;;26.38;19.98;;;8.60;99.90;;;;;;5033048;28;20247;-73
2021/11/10 10:32:55;;;;;;;26.17;19.77;;;8.60;99.90;;;;;;5034427;28;20204;-72
2021/11/10 10:35:30;;;;;;;27.85;20.77;;;8.50;99.90;;;;;;5036460;28;20680;-72
2021/11/10 10:38:00;;;;;;;26.85;20.63;;;8.40;99.90;;;;;;5037260;28;20236;-73
2021/11/10 10:40:27;;;;;;;28.80;21.20;;;8.40;99.90;;;;;;5036934;28;20275;-74
2021/11/10 10:42:55;;;;;;;27.73;19.85;;;8.40;99.90;;;;;;5037016;28;20254;-73
2021/11/10 10:45:36;;;;;;;25.77;21.25;;;8.40;99.90;;;;;;5036121;28;20224;-73
2021/11/10 10:48:07;;;;;;;28.05;20.85;;;8.50;99.90;;;;;;5037087;28;20224;-73
2021/11/10 10:50:39;;;;;;;26.05;21.15;;;8.70;99.90;;;;;;5036742;28;20290;-73
2021/11/10 10:53:08;;;;;;;29.77;21.05;;;8.60;99.90;;;;;;5036653;28;20208;-74
2021/11/10 10:55:37;;;;;;;30.08;20.60;;;8.80;99.90;;;;;;5036004;28;20554;-73
2021/11/10 10:58:06;;;;;;;27.83;20.05;;;8.90;99.90;;;;;;5036927;28;20303;-74
2021/11/10 11:00:35;;;;;;;27.70;20.33;;;9.00;99.90;;;;;;5036927;28;20295;-74
2021/11/10 11:03:32;;;;;;;24.70;19.92;;;8.90;99.90;;;;;;5036446;28;20222;-74
2021/11/10 11:05:59;;;;;;;26.48;20.13;;;9.10;99.90;;;;;;5035732;28;20200;-74
2021/11/10 11:08:33;;;;;;;30.63;21.20;;;9.00;99.90;;;;;;5036877;28;20299;-74
2021/11/10 11:11:01;;;;;;;27.70;20.45;;;9.20;99.90;;;;;;5036776;28;20549;-74
2021/11/10 11:13:44;;;;;;;25.88;19.58;;;9.30;99.90;;;;;;5036197;28;20208;-74
2021/11/10 11:16:11;;;;;;;28.10;21.48;;;9.20;99.90;;;;;;5035627;28;20231;-74
2021/11/10 11:18:39;;;;;;;30.42;21.77;;;8.90;99.90;;;;;;5036378;28;20227;-74
2021/11/10 11:21:23;;;;;;;28.40;20.92;;;9.00;99.90;;;;;;5035387;28;20687;-74
2021/11/10 11:23:52;;;;;;;25.95;20.35;;;9.10;99.90;;;;;;5035919;28;20215;-75
2021/11/10 11:26:36;;;;;;;25.75;21.13;;;9.20;99.90;;;;;;5035612;28;20232;-75
2021/11/10 11:29:24;;;;;;;26.55;20.90;;;9.40;99.90;;;;;;5036504;28;20192;-75
2021/11/10 11:31:52;;;;;;;29.67;22.50;;;9.30;99.90;;;;;;5030284;28;20963;-76
2021/11/10 11:34:19;;;;;;;28.02;21.77;;;9.30;99.90;;;;;;5035013;28;20204;-76
2021/11/10 11:36:51;;;;;;;30.05;22.08;;;9.40;99.90;;;;;;5034794;28;20242;-76
2021/11/10 11:39:20;;;;;;;29.02;22.55;;;9.30;99.90;;;;;;5035250;28;20720;-76
2021/11/10 11:41:47;;;;;;;26.05;22.20;;;9.30;99.90;;;;;;5036680;28;20211;-75
2021/11/10 11:44:17;;;;;;;29.45;21.63;;;9.30;99.90;;;;;;5034128;28;20216;-73
2021/11/10 11:46:46;;;;;;;32.92;22.50;;;9.40;99.90;;;;;;5033675;28;20314;-72
2021/11/10 11:49:15;;;;;;;27.65;22.15;;;9.40;99.90;;;;;;5034965;28;20570;-70
2021/11/10 11:51:42;;;;;;;28.55;21.95;;;9.30;99.90;;;;;;5035191;28;20299;-74
2021/11/10 11:54:10;;;;;;;25.80;21.10;;;9.10;99.90;;;;;;5035434;28;20543;-74
2021/11/10 11:56:41;;;;;;;28.48;22.35;;;9.10;99.90;;;;;;5035250;28;20289;-73
2021/11/10 11:59:09;;;;;;;27.80;21.15;;;9.00;99.90;;;;;;5035397;28;20576;-73
2021/11/10 12:01:38;;;;;;;26.88;20.15;;;9.10;99.90;;;;;;5035160;28;20743;-74
2021/11/10 12:04:07;;;;;;;26.83;20.90;;;9.30;99.90;;;;;;5034656;28;20318;-73
2021/11/10 12:06:44;;;;;;;31.42;20.90;;;9.40;99.90;;;;;;5034019;28;20228;-75
2021/11/10 12:09:17;;;;;;;28.77;22.50;;;9.50;99.90;;;;;;5034954;28;20234;-72
2021/11/10 12:11:51;;;;;;;29.27;21.92;;;9.60;99.90;;;;;;5034464;28;20223;-72
2021/11/10 12:14:19;;;;;;;30.55;22.05;;;9.50;99.90;;;;;;5034050;28;20200;-73
2021/11/10 12:16:56;;;;;;;25.75;21.90;;;9.60;99.90;;;;;;5033887;28;20601;-73
2021/11/10 12:19:31;;;;;;;27.15;20.58;;;9.70;99.90;;;;;;5033840;28;20207;-73
2021/11/10 12:22:03;;;;;;;24.13;19.83;;;9.90;99.90;;;;;;5034057;28;20214;-72
2021/11/10 12:24:41;;;;;;;25.25;21.15;;;9.90;99.90;;;;;;5034061;28;20638;-74
2021/11/10 12:27:29;;;;;;;25.60;19.70;;;10.00;99.90;;;;;;5033973;28;20224;-74
2021/11/10 12:30:11;;;;;;;28.98;21.00;;;10.10;99.90;;;;;;5014128;28;20271;-73
2021/11/10 12:32:57;;;;;;;25.95;19.23;;;10.30;99.90;;;;;;5014349;28;20295;-74
2021/11/10 12:35:44;;;;;;;22.95;18.80;;;10.50;99.90;;;;;;5013782;28;20219;-73
2021/11/10 12:38:19;;;;;;;26.00;21.08;;;10.60;99.90;;;;;;5014182;28;20621;-73
2021/11/10 12:40:48;;;;;;;22.73;19.70;;;10.60;99.90;;;;;;5013880;28;20215;-73
2021/11/10 12:43:19;;;;;;;22.70;19.10;;;10.60;99.90;;;;;;5014122;28;20208;-73
2021/11/10 12:46:00;;;;;;;24.88;20.33;;;10.70;99.90;;;;;;5013396;28;20229;-73